createdAt,value
2018-11-11T00:30:45.861Z,100.00
2018-11-11T00:33:14.955Z,100.00
2018-11-11T00:35:44.027Z,100.00
2018-11-11T00:38:13.094Z,100.00
2018-11-11T00:40:42.199Z,100.00
2018-11-11T00:43:11.271Z,100.00
2018-11-11T00:45:40.381Z,100.00
2018-11-11T00:48:09.473Z,100.00
2018-11-11T00:50:38.537Z,100.00
2018-11-11T00:53:07.623Z,100.00
2018-11-11T00:55:39.047Z,100.00
2018-11-11T00:58:08.355Z,100.00
2018-11-11T01:00:37.430Z,100.00
2018-11-11T01:03:06.541Z,100.00
2018-11-11T01:05:35.645Z,100.00
2018-11-11T01:08:04.768Z,100.00
2018-11-11T01:10:33.849Z,100.00
2018-11-11T01:13:02.915Z,100.00
2018-11-11T01:15:32.110Z,100.00
2018-11-11T01:18:01.265Z,100.00
2018-11-11T01:20:30.427Z,100.00
2018-11-11T01:22:59.504Z,100.00
2018-11-11T01:25:28.580Z,100.00
2018-11-11T01:27:57.656Z,100.00
2018-11-11T01:30:26.788Z,100.00
2018-11-11T01:32:55.934Z,100.00
2018-11-11T01:35:25.104Z,100.00
2018-11-11T01:37:54.277Z,100.00
2018-11-11T01:40:23.392Z,100.00
2018-11-11T01:42:52.788Z,100.00
2018-11-11T01:45:21.938Z,100.00
2018-11-11T01:47:51.071Z,100.00
2018-11-11T01:50:20.148Z,100.00
2018-11-11T01:52:49.239Z,100.00
2018-11-11T01:55:18.363Z,100.00
2018-11-11T01:57:47.487Z,100.00
2018-11-11T02:00:17.797Z,100.00
2018-11-11T02:02:47.667Z,100.00
2018-11-11T02:05:16.910Z,100.00
2018-11-11T02:07:46.709Z,100.00
2018-11-11T02:10:15.795Z,100.00
2018-11-11T02:12:45.763Z,100.00
2018-11-11T02:15:15.840Z,100.00
2018-11-11T02:17:44.955Z,100.00
2018-11-11T02:20:19.165Z,100.00
2018-11-11T02:22:49.387Z,100.00
2018-11-11T02:25:18.472Z,100.00
2018-11-11T02:27:47.784Z,100.00
2018-11-11T02:30:18.198Z,100.00
2018-11-11T02:32:47.337Z,100.00
2018-11-11T02:35:16.397Z,100.00
2018-11-11T02:37:45.792Z,100.00
2018-11-11T02:40:17.041Z,100.00
2018-11-11T02:42:46.459Z,100.00
2018-11-11T02:45:16.558Z,100.00
2018-11-11T02:47:45.671Z,100.00
2018-11-11T02:50:15.911Z,100.00
2018-11-11T02:52:45.478Z,100.00
2018-11-11T02:55:14.998Z,100.00
2018-11-11T02:57:44.570Z,100.00
2018-11-11T03:00:14.928Z,100.00
2018-11-11T03:02:44.736Z,100.00
2018-11-11T03:05:14.850Z,100.00
2018-11-11T03:07:43.982Z,100.00
2018-11-11T03:10:14.201Z,100.00
2018-11-11T03:12:43.873Z,100.00
2018-11-11T03:15:13.791Z,100.00
2018-11-11T03:17:42.992Z,100.00
2018-11-11T03:20:12.748Z,100.00
2018-11-11T03:22:41.834Z,100.00
2018-11-11T03:25:12.227Z,100.00
2018-11-11T03:27:41.860Z,100.00
2018-11-11T03:30:12.266Z,100.00
2018-11-11T03:32:41.557Z,100.00
2018-11-11T03:35:11.584Z,100.00
2018-11-11T03:37:41.184Z,100.00
2018-11-11T03:40:13.558Z,100.00
2018-11-11T03:42:43.057Z,100.00
2018-11-11T03:45:13.496Z,100.00
2018-11-11T03:47:43.623Z,100.00
2018-11-11T03:50:12.688Z,100.00
2018-11-11T03:52:42.199Z,100.00
2018-11-11T03:55:11.505Z,100.00
2018-11-11T03:57:40.615Z,100.00
2018-11-11T04:00:11.243Z,100.00
2018-11-11T04:02:40.639Z,100.00
2018-11-11T04:05:10.970Z,100.00
2018-11-11T04:07:40.704Z,100.00
2018-11-11T04:10:12.036Z,100.00
2018-11-11T04:12:41.404Z,100.00
2018-11-11T04:15:12.950Z,100.00
2018-11-11T04:17:42.041Z,100.00
2018-11-11T04:20:13.930Z,100.00
2018-11-11T04:22:42.992Z,100.00
2018-11-11T04:25:12.533Z,100.00
2018-11-11T04:27:41.625Z,100.00
2018-11-11T04:30:11.737Z,100.00
2018-11-11T04:32:41.250Z,100.00
2018-11-11T04:35:10.751Z,100.00
2018-11-11T04:37:39.949Z,100.00
2018-11-11T04:40:10.474Z,100.00
2018-11-11T04:42:39.549Z,100.00
2018-11-11T04:45:10.287Z,100.00
2018-11-11T04:47:39.414Z,100.00
2018-11-11T04:50:09.941Z,100.00
2018-11-11T04:52:39.027Z,100.00
2018-11-11T04:57:47.859Z,100.00
2018-11-11T05:00:16.945Z,100.00
2018-11-11T05:02:46.014Z,100.00
2018-11-11T05:05:15.376Z,100.00
2018-11-11T05:07:44.553Z,100.00
2018-11-11T05:10:14.208Z,100.00
2018-11-11T05:12:43.278Z,100.00
2018-11-11T05:15:13.371Z,100.00
2018-11-11T05:17:42.664Z,100.00
2018-11-11T05:20:12.628Z,100.00
2018-11-11T05:22:42.219Z,100.00
2018-11-11T05:25:12.677Z,100.00
2018-11-11T05:27:42.057Z,100.00
2018-11-11T05:30:11.957Z,100.00
2018-11-11T05:32:41.179Z,100.00
2018-11-11T05:35:11.371Z,100.00
2018-11-11T05:37:41.149Z,100.00
2018-11-11T05:40:11.297Z,100.00
2018-11-11T05:42:41.089Z,100.00
2018-11-11T05:45:11.308Z,100.00
2018-11-11T05:47:40.924Z,100.00
2018-11-11T05:50:11.867Z,100.00
2018-11-11T05:52:41.351Z,100.00
2018-11-11T05:55:10.663Z,100.00
2018-11-11T05:57:39.885Z,100.00
2018-11-11T06:00:11.055Z,100.00
2018-11-11T06:02:40.415Z,100.00
2018-11-11T06:05:11.239Z,100.00
2018-11-11T06:07:40.415Z,100.00
2018-11-11T06:10:11.104Z,100.00
2018-11-11T06:12:40.268Z,100.00
2018-11-11T06:15:10.827Z,100.00
2018-11-11T06:17:39.943Z,100.00
2018-11-11T06:20:11.532Z,100.00
2018-11-11T06:22:40.868Z,100.00
2018-11-11T06:25:10.424Z,100.00
2018-11-11T06:27:39.583Z,100.00
2018-11-11T06:30:14.220Z,100.00
2018-11-11T06:32:43.348Z,100.00
2018-11-11T06:35:12.502Z,100.00
2018-11-11T06:37:41.700Z,100.00
2018-11-11T06:40:11.824Z,100.00
2018-11-11T06:42:41.305Z,100.00
2018-11-11T06:45:12.161Z,100.00
2018-11-11T06:47:41.974Z,100.00
2018-11-11T06:50:12.331Z,100.00
2018-11-11T06:52:41.897Z,100.00
2018-11-11T06:55:11.294Z,100.00
2018-11-11T06:57:40.720Z,100.00
2018-11-11T07:00:12.495Z,100.00
2018-11-11T07:02:51.836Z,100.00
2018-11-11T07:05:20.907Z,100.00
2018-11-11T07:07:50.352Z,100.00
2018-11-11T07:10:19.421Z,100.00
2018-11-11T07:12:48.590Z,100.00
2018-11-11T07:15:17.764Z,100.00
2018-11-11T07:17:47.004Z,100.00
2018-11-11T07:20:16.256Z,100.00
2018-11-11T07:22:45.380Z,100.00
2018-11-11T07:25:14.540Z,100.00
2018-11-11T07:27:43.760Z,100.00
2018-11-11T07:30:12.925Z,100.00
2018-11-11T07:32:42.256Z,100.00
2018-11-11T07:35:11.785Z,100.00
2018-11-11T07:37:40.924Z,100.00
2018-11-11T07:40:12.230Z,100.00
2018-11-11T07:42:41.619Z,100.00
2018-11-11T07:45:10.762Z,100.00
2018-11-11T07:47:40.095Z,100.00
2018-11-11T07:50:10.536Z,100.00
2018-11-11T07:52:39.752Z,100.00
2018-11-11T07:55:10.565Z,100.00
2018-11-11T07:57:39.608Z,100.00
2018-11-11T08:00:10.755Z,100.00
2018-11-11T08:02:39.936Z,100.00
2018-11-11T08:05:09.220Z,100.00
2018-11-11T08:07:38.329Z,100.00
2018-11-11T08:10:18.900Z,100.00
2018-11-11T08:12:48.028Z,100.00
2018-11-11T08:15:17.095Z,100.00
2018-11-11T08:17:46.305Z,100.00
2018-11-11T08:20:15.411Z,100.00
2018-11-11T08:22:44.759Z,100.00
2018-11-11T08:25:13.991Z,100.00
2018-11-11T08:27:43.111Z,100.00
2018-11-11T08:30:12.321Z,100.00
2018-11-11T08:32:41.497Z,100.00
2018-11-11T08:35:10.857Z,100.00
2018-11-11T08:37:40.238Z,100.00
2018-11-11T08:40:10.085Z,100.00
2018-11-11T08:42:39.193Z,100.00
2018-11-11T08:45:10.530Z,100.00
2018-11-11T08:47:39.679Z,100.00
2018-11-11T08:50:09.661Z,100.00
2018-11-11T08:52:38.860Z,100.00
2018-11-11T08:55:08.002Z,100.00
2018-11-11T08:57:37.189Z,100.00
2018-11-11T09:00:11.038Z,100.00
2018-11-11T09:02:40.411Z,100.00
2018-11-11T09:05:09.920Z,100.00
2018-11-11T09:07:39.508Z,100.00
2018-11-11T09:10:10.273Z,100.00
2018-11-11T09:12:40.786Z,100.00
2018-11-11T09:15:12.424Z,100.00
2018-11-11T09:17:41.996Z,100.00
2018-11-11T09:20:11.704Z,100.00
2018-11-11T09:22:41.099Z,100.00
2018-11-11T09:25:10.619Z,100.00
2018-11-11T09:27:40.952Z,100.00
2018-11-11T09:30:12.330Z,100.00
2018-11-11T09:32:41.644Z,100.00
2018-11-11T09:35:11.089Z,100.00
2018-11-11T09:37:40.585Z,100.00
2018-11-11T09:40:10.723Z,100.00
2018-11-11T09:42:40.098Z,100.00
2018-11-11T09:45:11.020Z,100.00
2018-11-11T09:47:40.272Z,100.00
2018-11-11T09:50:11.155Z,100.00
2018-11-11T09:52:40.422Z,100.00
2018-11-11T09:55:10.729Z,100.00
2018-11-11T09:57:40.285Z,100.00
2018-11-11T10:00:14.889Z,100.00
2018-11-11T10:02:49.336Z,100.00
2018-11-11T10:05:28.484Z,98.82
2018-11-11T10:08:03.641Z,98.21
2018-11-11T10:10:46.149Z,97.83
2018-11-11T10:13:20.645Z,97.28
2018-11-11T10:16:54.837Z,94.16
2018-11-11T10:19:30.520Z,95.86
2018-11-11T10:22:04.730Z,97.15
2018-11-11T10:24:56.866Z,97.59
2018-11-11T10:27:32.583Z,99.06
2018-11-11T10:30:36.110Z,97.93
2018-11-11T10:33:21.333Z,98.27
2018-11-11T10:35:55.663Z,98.80
2018-11-11T10:39:34.061Z,99.47
2018-11-11T10:43:06.040Z,100.00
2018-11-11T10:45:39.531Z,100.00
2018-11-11T10:48:09.493Z,100.00
2018-11-11T10:50:41.907Z,100.00
2018-11-11T10:53:11.003Z,99.78
2018-11-11T10:55:40.100Z,99.39
2018-11-11T10:58:09.349Z,97.48
2018-11-11T11:00:43.920Z,96.42
2018-11-11T11:03:18.364Z,96.03
2018-11-11T11:05:47.475Z,94.94
2018-11-11T11:08:16.549Z,92.80
2018-11-11T11:10:45.652Z,90.74
2018-11-11T11:13:14.748Z,89.55
2018-11-11T11:15:43.831Z,87.60
2018-11-11T11:18:12.948Z,82.35
2018-11-11T11:20:42.212Z,73.62
2018-11-11T11:23:11.502Z,73.62
2018-11-11T11:25:40.663Z,66.05
2018-11-11T11:28:09.780Z,64.07
2018-11-11T11:30:39.010Z,61.21
2018-11-11T11:33:08.112Z,56.42
2018-11-11T11:35:37.321Z,52.04
2018-11-11T11:38:06.516Z,48.91
2018-11-11T11:40:35.606Z,44.62
2018-11-11T11:43:04.933Z,41.79
2018-11-11T11:45:34.098Z,37.31
2018-11-11T11:48:03.185Z,45.93
2018-11-11T11:50:33.070Z,53.36
2018-11-11T11:53:02.135Z,49.85
2018-11-11T11:55:31.207Z,39.18
2018-11-11T11:58:11.641Z,44.00
2018-11-11T12:00:40.671Z,47.55
2018-11-11T12:03:09.844Z,51.19
2018-11-11T12:05:39.090Z,48.17
2018-11-11T12:08:08.181Z,51.83
2018-11-11T12:10:37.309Z,53.71
2018-11-11T12:13:06.947Z,51.46
2018-11-11T12:15:36.057Z,44.12
2018-11-11T12:18:05.325Z,34.84
2018-11-11T12:20:34.589Z,34.84
2018-11-11T12:23:03.751Z,29.75
2018-11-11T12:25:32.819Z,29.86
2018-11-11T12:28:02.021Z,29.98
2018-11-11T12:30:31.487Z,31.75
2018-11-11T12:33:00.561Z,33.17
2018-11-11T12:35:29.628Z,31.73
2018-11-11T12:37:59.100Z,28.46
2018-11-11T12:40:28.317Z,29.42
2018-11-11T12:42:57.572Z,28.14
2018-11-11T12:45:26.746Z,27.30
2018-11-11T12:47:56.073Z,27.09
2018-11-11T12:50:25.265Z,27.24
2018-11-11T12:52:54.320Z,25.78
2018-11-11T12:55:23.535Z,27.63
2018-11-11T12:57:52.616Z,27.38
2018-11-11T13:00:21.730Z,26.34
2018-11-11T13:02:50.830Z,26.55
2018-11-11T13:05:19.916Z,26.43
2018-11-11T13:07:49.011Z,27.11
2018-11-11T13:10:18.092Z,26.37
2018-11-11T13:12:47.241Z,27.69
2018-11-11T13:15:16.316Z,27.21
2018-11-11T13:17:45.360Z,26.82
2018-11-11T13:20:15.942Z,26.04
2018-11-11T13:22:45.222Z,25.47
2018-11-11T13:25:14.735Z,25.96
2018-11-11T13:27:43.858Z,24.60
2018-11-11T13:30:14.180Z,24.79
2018-11-11T13:32:43.421Z,24.71
2018-11-11T13:35:13.907Z,25.47
2018-11-11T13:37:43.253Z,25.82
2018-11-11T13:40:14.589Z,26.14
2018-11-11T13:42:43.714Z,25.56
2018-11-11T13:45:15.209Z,24.67
2018-11-11T13:47:45.297Z,24.40
2018-11-11T13:50:16.515Z,26.10
2018-11-11T13:52:46.144Z,24.91
2018-11-11T13:55:15.903Z,25.85
2018-11-11T13:57:45.606Z,23.82
2018-11-11T14:00:17.101Z,24.11
2018-11-11T14:02:46.341Z,22.76
2018-11-11T14:05:15.634Z,24.69
2018-11-11T14:07:44.680Z,24.45
2018-11-11T14:10:14.786Z,25.50
2018-11-11T14:12:43.971Z,24.51
2018-11-11T14:15:16.263Z,24.55
2018-11-11T14:17:45.917Z,25.63
2018-11-11T14:20:16.373Z,24.18
2018-11-11T14:22:46.541Z,25.92
2018-11-11T14:25:19.723Z,26.23
2018-11-11T14:27:48.820Z,26.50
2018-11-11T14:30:20.309Z,30.38
2018-11-11T14:32:50.335Z,30.38
2018-11-11T14:35:19.468Z,37.49
2018-11-11T14:37:48.844Z,40.41
2018-11-11T14:40:22.872Z,40.46
2018-11-11T14:42:52.073Z,43.27
2018-11-11T14:45:21.802Z,42.80
2018-11-11T14:47:52.111Z,43.51
2018-11-11T14:50:21.783Z,43.26
2018-11-11T14:52:51.053Z,39.43
2018-11-11T14:55:23.517Z,39.86
2018-11-11T14:57:52.604Z,44.27
2018-11-11T15:00:23.290Z,45.65
2018-11-11T15:02:59.385Z,49.14
2018-11-11T15:05:28.586Z,53.75
2018-11-11T15:07:57.807Z,57.13
2018-11-11T15:10:26.922Z,58.98
2018-11-11T15:12:56.023Z,61.11
2018-11-11T15:15:25.548Z,63.39
2018-11-11T15:17:55.569Z,65.51
2018-11-11T15:20:24.751Z,67.08
2018-11-11T15:22:53.731Z,67.29
2018-11-11T15:25:24.231Z,69.99
2018-11-11T15:27:53.244Z,71.30
2018-11-11T15:30:23.590Z,73.08
2018-11-11T15:32:53.210Z,72.75
2018-11-11T15:35:22.348Z,75.06
2018-11-11T15:37:51.595Z,75.40
2018-11-11T15:40:25.187Z,75.98
2018-11-11T15:42:54.376Z,76.26
2018-11-11T15:45:33.037Z,77.30
2018-11-11T15:48:02.400Z,78.44
2018-11-11T15:50:32.748Z,80.50
2018-11-11T15:53:03.163Z,81.48
2018-11-11T15:55:33.672Z,83.51
2018-11-11T15:58:02.919Z,85.45
2018-11-11T16:00:33.380Z,85.12
2018-11-11T16:03:02.527Z,86.11
2018-11-11T16:05:31.616Z,86.68
2018-11-11T16:08:01.446Z,88.34
2018-11-11T16:10:31.788Z,88.99
2018-11-11T16:13:01.097Z,90.32
2018-11-11T16:15:36.710Z,90.60
2018-11-11T16:18:07.903Z,89.93
2018-11-11T16:20:37.085Z,90.68
2018-11-11T16:23:07.065Z,90.84
2018-11-11T16:25:36.578Z,91.17
2018-11-11T16:28:05.891Z,91.13
2018-11-11T16:30:36.282Z,91.86
2018-11-11T16:33:06.779Z,92.64
2018-11-11T16:35:35.880Z,93.10
2018-11-11T16:38:05.676Z,93.15
2018-11-11T16:40:36.004Z,94.00
2018-11-11T16:43:05.207Z,93.97
2018-11-11T16:45:35.233Z,95.70
2018-11-11T16:48:04.485Z,95.38
2018-11-11T16:50:34.667Z,95.53
2018-11-11T16:53:05.324Z,95.05
2018-11-11T16:55:35.296Z,95.33
2018-11-11T16:58:04.496Z,95.81
2018-11-11T17:00:35.034Z,95.56
2018-11-11T17:03:04.962Z,95.56
2018-11-11T17:05:35.114Z,96.85
2018-11-11T17:08:04.456Z,97.82
2018-11-11T17:10:34.940Z,97.20
2018-11-11T17:13:10.606Z,98.62
2018-11-11T17:15:39.811Z,99.24
2018-11-11T17:18:08.901Z,100.00
2018-11-11T17:20:38.014Z,100.00
2018-11-11T17:23:08.153Z,99.87
2018-11-11T17:25:37.244Z,100.00
2018-11-11T17:28:06.609Z,100.00
2018-11-11T17:30:35.734Z,100.00
2018-11-11T17:33:08.234Z,100.00
2018-11-11T17:35:37.263Z,100.00
2018-11-11T17:38:06.469Z,100.00
2018-11-11T17:40:35.549Z,100.00
2018-11-11T17:43:04.689Z,100.00
2018-11-11T17:45:33.867Z,100.00
2018-11-11T17:48:02.955Z,100.00
2018-11-11T17:50:33.226Z,100.00
2018-11-11T17:53:03.864Z,100.00
2018-11-11T17:55:33.009Z,100.00
2018-11-11T17:58:02.093Z,100.00
2018-11-11T18:00:31.849Z,100.00
2018-11-11T18:03:01.894Z,100.00
2018-11-11T18:05:31.697Z,100.00
2018-11-11T18:08:00.990Z,100.00
2018-11-11T18:10:30.191Z,100.00
2018-11-11T18:12:59.252Z,100.00
2018-11-11T18:15:30.332Z,100.00
2018-11-11T18:17:59.426Z,100.00
2018-11-11T18:20:29.866Z,100.00
2018-11-11T18:23:00.214Z,100.00
2018-11-11T18:25:29.384Z,100.00
2018-11-11T18:27:58.736Z,100.00
2018-11-11T18:30:33.432Z,100.00
2018-11-11T18:33:14.834Z,100.00
2018-11-11T18:35:44.045Z,100.00
2018-11-11T18:38:13.138Z,100.00
2018-11-11T18:40:42.284Z,100.00
2018-11-11T18:43:11.449Z,100.00
2018-11-11T18:45:40.668Z,100.00
2018-11-11T18:48:09.715Z,100.00
2018-11-11T18:50:38.820Z,100.00
2018-11-11T18:53:07.932Z,100.00
2018-11-11T18:55:37.110Z,100.00
2018-11-11T18:58:06.312Z,100.00
2018-11-11T19:00:35.728Z,100.00
2018-11-11T19:03:04.861Z,100.00
2018-11-11T19:05:34.029Z,100.00
2018-11-11T19:08:03.127Z,100.00
2018-11-11T19:10:33.342Z,100.00
2018-11-11T19:13:05.883Z,100.00
2018-11-11T19:15:34.964Z,100.00
2018-11-11T19:18:04.079Z,100.00
2018-11-11T19:20:33.170Z,100.00
2018-11-11T19:23:02.284Z,100.00
2018-11-11T19:25:31.967Z,100.00
2018-11-11T19:28:01.988Z,100.00
2018-11-11T19:30:31.717Z,100.00
2018-11-11T19:33:00.892Z,100.00
2018-11-11T19:35:29.960Z,100.00
2018-11-11T19:37:59.500Z,100.00
2018-11-11T19:40:29.224Z,100.00
2018-11-11T19:42:59.608Z,100.00
2018-11-11T19:45:29.749Z,100.00
2018-11-11T19:47:58.852Z,100.00
2018-11-11T19:50:28.852Z,100.00
2018-11-11T19:52:58.564Z,100.00
2018-11-11T19:55:28.034Z,100.00
2018-11-11T19:57:57.132Z,100.00
2018-11-11T20:00:27.404Z,100.00
2018-11-11T20:02:57.336Z,100.00
2018-11-11T20:05:26.462Z,100.00
2018-11-11T20:07:56.610Z,100.00
2018-11-11T20:10:26.665Z,100.00
2018-11-11T20:12:55.792Z,100.00
2018-11-11T20:15:26.376Z,100.00
2018-11-11T20:17:55.501Z,100.00
2018-11-11T20:20:27.316Z,100.00
2018-11-11T20:22:56.410Z,100.00
2018-11-11T20:25:25.565Z,100.00
2018-11-11T20:27:54.735Z,100.00
2018-11-11T20:30:25.233Z,100.00
2018-11-11T20:32:54.361Z,100.00
2018-11-11T20:35:24.930Z,100.00
2018-11-11T20:37:54.152Z,100.00
2018-11-11T20:40:24.165Z,100.00
2018-11-11T20:42:53.784Z,100.00
2018-11-11T20:45:24.405Z,100.00
2018-11-11T20:47:53.617Z,100.00
2018-11-11T20:50:24.165Z,100.00
2018-11-11T20:52:56.005Z,100.00
2018-11-11T20:55:25.154Z,100.00
2018-11-11T20:57:54.263Z,100.00
2018-11-11T21:00:24.725Z,100.00
2018-11-11T21:02:54.036Z,100.00
2018-11-11T21:05:25.363Z,100.00
2018-11-11T21:07:54.584Z,100.00
2018-11-11T21:10:25.072Z,100.00
2018-11-11T21:12:54.264Z,100.00
2018-11-11T21:15:24.693Z,100.00
2018-11-11T21:17:53.799Z,100.00
2018-11-11T21:20:24.444Z,100.00
2018-11-11T21:22:53.548Z,100.00
2018-11-11T21:25:22.986Z,100.00
2018-11-11T21:27:52.885Z,100.00
2018-11-11T21:30:26.899Z,100.00
2018-11-11T21:32:56.268Z,100.00
2018-11-11T21:35:25.724Z,100.00
2018-11-11T21:37:54.933Z,100.00
2018-11-11T21:40:25.344Z,100.00
2018-11-11T21:42:55.444Z,100.00
2018-11-11T21:45:25.871Z,100.00
2018-11-11T21:47:55.054Z,100.00
2018-11-11T21:50:25.778Z,100.00
2018-11-11T21:53:09.831Z,100.00
2018-11-11T21:55:39.121Z,100.00
2018-11-11T21:58:08.513Z,100.00
2018-11-11T22:00:38.271Z,100.00
2018-11-11T22:03:07.391Z,100.00
2018-11-11T22:05:36.450Z,100.00
2018-11-11T22:08:05.529Z,100.00
2018-11-11T22:10:34.653Z,100.00
2018-11-11T22:13:03.753Z,100.00
2018-11-11T22:15:32.935Z,100.00
2018-11-11T22:18:01.979Z,100.00
2018-11-11T22:20:31.065Z,100.00
2018-11-11T22:23:00.204Z,100.00
2018-11-11T22:25:29.236Z,100.00
2018-11-11T22:27:58.416Z,100.00
2018-11-11T22:30:27.473Z,100.00
2018-11-11T22:32:56.576Z,100.00
2018-11-11T22:35:25.639Z,100.00
2018-11-11T22:37:54.706Z,100.00
2018-11-11T22:40:23.831Z,100.00
2018-11-11T22:42:52.974Z,100.00
2018-11-11T22:45:22.051Z,100.00
2018-11-11T22:47:51.175Z,100.00
2018-11-11T22:50:20.455Z,100.00
2018-11-11T22:52:49.561Z,100.00
2018-11-11T22:55:18.647Z,100.00
2018-11-11T22:57:47.959Z,100.00
2018-11-11T23:00:22.280Z,100.00
2018-11-11T23:02:51.850Z,100.00
2018-11-11T23:05:21.870Z,100.00
2018-11-11T23:07:51.188Z,100.00
2018-11-11T23:10:20.272Z,100.00
2018-11-11T23:12:49.375Z,100.00
2018-11-11T23:15:20.026Z,100.00
2018-11-11T23:17:49.258Z,100.00
2018-11-11T23:20:19.627Z,100.00
2018-11-11T23:22:48.784Z,100.00
2018-11-11T23:25:18.824Z,100.00
2018-11-11T23:27:47.940Z,100.00
2018-11-11T23:30:23.633Z,100.00
2018-11-11T23:32:52.971Z,100.00
2018-11-11T23:35:22.073Z,100.00
2018-11-11T23:37:51.180Z,100.00
2018-11-11T23:40:20.288Z,100.00
2018-11-11T23:42:49.366Z,100.00
2018-11-11T23:45:18.555Z,100.00
2018-11-11T23:47:47.643Z,100.00
2018-11-11T23:50:18.074Z,100.00
2018-11-11T23:52:47.538Z,100.00
2018-11-11T23:55:17.796Z,100.00
2018-11-11T23:57:46.924Z,100.00
